sensor_id;sensor_type;location;lat;lon;timestamp;pressure;altitude;pressure_sealevel;temperature
5571;BMP180;2808;51.240;6.794;2023-03-21T00:00:23;101251.00;;;10.50
5571;BMP180;2808;51.240;6.794;2023-03-21T00:02:51;101255.00;;;10.50
5571;BMP180;2808;51.240;6.794;2023-03-21T00:05:19;101251.00;;;10.50
5571;BMP180;2808;51.240;6.794;2023-03-21T00:07:46;101239.00;;;10.50
5571;BMP180;2808;51.240;6.794;2023-03-21T00:10:15;101240.00;;;10.50
5571;BMP180;2808;51.240;6.794;2023-03-21T00:12:43;101237.00;;;10.50
5571;BMP180;2808;51.240;6.794;2023-03-21T00:15:12;101235.00;;;10.50
5571;BMP180;2808;51.240;6.794;2023-03-21T00:17:39;101242.00;;;10.60
5571;BMP180;2808;51.240;6.794;2023-03-21T00:20:10;101242.00;;;10.70
5571;BMP180;2808;51.240;6.794;2023-03-21T00:22:40;101236.00;;;10.80
5571;BMP180;2808;51.240;6.794;2023-03-21T00:25:09;101234.00;;;10.80
5571;BMP180;2808;51.240;6.794;2023-03-21T00:27:38;101238.00;;;10.90
5571;BMP180;2808;51.240;6.794;2023-03-21T00:30:06;101233.00;;;10.80
5571;BMP180;2808;51.240;6.794;2023-03-21T00:32:34;101225.00;;;10.70
5571;BMP180;2808;51.240;6.794;2023-03-21T00:35:01;101225.00;;;10.70
5571;BMP180;2808;51.240;6.794;2023-03-21T00:37:29;101232.00;;;10.70
5571;BMP180;2808;51.240;6.794;2023-03-21T00:39:56;101224.00;;;10.60
5571;BMP180;2808;51.240;6.794;2023-03-21T00:42:24;101223.00;;;10.60
5571;BMP180;2808;51.240;6.794;2023-03-21T00:44:53;101217.00;;;10.60
5571;BMP180;2808;51.240;6.794;2023-03-21T00:47:21;101212.00;;;10.60
5571;BMP180;2808;51.240;6.794;2023-03-21T00:49:51;101213.00;;;10.60
5571;BMP180;2808;51.240;6.794;2023-03-21T00:52:19;101209.00;;;10.60
5571;BMP180;2808;51.240;6.794;2023-03-21T00:54:47;101207.00;;;10.60
5571;BMP180;2808;51.240;6.794;2023-03-21T00:57:22;101205.00;;;10.60
5571;BMP180;2808;51.240;6.794;2023-03-21T00:59:53;101202.00;;;10.60
5571;BMP180;2808;51.240;6.794;2023-03-21T01:02:26;101200.00;;;10.60
5571;BMP180;2808;51.240;6.794;2023-03-21T01:04:53;101198.00;;;10.60
5571;BMP180;2808;51.240;6.794;2023-03-21T01:07:22;101199.00;;;10.60
5571;BMP180;2808;51.240;6.794;2023-03-21T01:09:49;101198.00;;;10.60
5571;BMP180;2808;51.240;6.794;2023-03-21T01:12:17;101199.00;;;10.60
5571;BMP180;2808;51.240;6.794;2023-03-21T01:14:45;101191.00;;;10.60
5571;BMP180;2808;51.240;6.794;2023-03-21T01:17:14;101191.00;;;10.60
5571;BMP180;2808;51.240;6.794;2023-03-21T01:19:41;101187.00;;;10.60
5571;BMP180;2808;51.240;6.794;2023-03-21T01:22:09;101188.00;;;10.60
5571;BMP180;2808;51.240;6.794;2023-03-21T01:24:36;101190.00;;;10.60
5571;BMP180;2808;51.240;6.794;2023-03-21T01:27:04;101185.00;;;10.60
5571;BMP180;2808;51.240;6.794;2023-03-21T01:29:33;101182.00;;;10.60
5571;BMP180;2808;51.240;6.794;2023-03-21T01:32:01;101176.00;;;10.70
5571;BMP180;2808;51.240;6.794;2023-03-21T01:34:31;101180.00;;;10.70
5571;BMP180;2808;51.240;6.794;2023-03-21T01:36:59;101170.00;;;10.70
5571;BMP180;2808;51.240;6.794;2023-03-21T01:39:27;101182.00;;;10.70
5571;BMP180;2808;51.240;6.794;2023-03-21T01:41:55;101177.00;;;10.70
5571;BMP180;2808;51.240;6.794;2023-03-21T01:44:22;101180.00;;;10.70
5571;BMP180;2808;51.240;6.794;2023-03-21T01:46:50;101178.00;;;10.60
5571;BMP180;2808;51.240;6.794;2023-03-21T01:49:22;101182.00;;;10.60
5571;BMP180;2808;51.240;6.794;2023-03-21T01:51:57;101174.00;;;10.60
5571;BMP180;2808;51.240;6.794;2023-03-21T01:54:33;101170.00;;;10.60
5571;BMP180;2808;51.240;6.794;2023-03-21T01:57:08;101170.00;;;10.60
5571;BMP180;2808;51.240;6.794;2023-03-21T01:59:39;101171.00;;;10.70
5571;BMP180;2808;51.240;6.794;2023-03-21T02:02:10;101170.00;;;10.60
5571;BMP180;2808;51.240;6.794;2023-03-21T02:04:40;101164.00;;;10.60
5571;BMP180;2808;51.240;6.794;2023-03-21T02:07:25;101159.00;;;10.60
5571;BMP180;2808;51.240;6.794;2023-03-21T02:09:58;101156.00;;;10.60
5571;BMP180;2808;51.240;6.794;2023-03-21T02:12:26;101153.00;;;10.60
5571;BMP180;2808;51.240;6.794;2023-03-21T02:14:54;101154.00;;;10.60
5571;BMP180;2808;51.240;6.794;2023-03-21T02:17:27;101153.00;;;10.60
5571;BMP180;2808;51.240;6.794;2023-03-21T02:20:46;101150.00;;;10.60
5571;BMP180;2808;51.240;6.794;2023-03-21T02:23:43;101144.00;;;10.70
5571;BMP180;2808;51.240;6.794;2023-03-21T02:32:17;101126.00;;;10.60
5571;BMP180;2808;51.240;6.794;2023-03-21T02:34:59;101122.00;;;10.60
5571;BMP180;2808;51.240;6.794;2023-03-21T02:37:39;101123.00;;;10.70
5571;BMP180;2808;51.240;6.794;2023-03-21T02:40:13;101120.00;;;10.60
5571;BMP180;2808;51.240;6.794;2023-03-21T02:42:52;101119.00;;;10.70
5571;BMP180;2808;51.240;6.794;2023-03-21T02:45:24;101115.00;;;10.70
5571;BMP180;2808;51.240;6.794;2023-03-21T02:47:56;101114.00;;;10.60
5571;BMP180;2808;51.240;6.794;2023-03-21T02:50:33;101112.00;;;10.70
5571;BMP180;2808;51.240;6.794;2023-03-21T02:53:11;101108.00;;;10.60
5571;BMP180;2808;51.240;6.794;2023-03-21T02:55:41;101114.00;;;10.70
5571;BMP180;2808;51.240;6.794;2023-03-21T02:58:11;101112.00;;;10.60
5571;BMP180;2808;51.240;6.794;2023-03-21T03:00:43;101105.00;;;10.60
5571;BMP180;2808;51.240;6.794;2023-03-21T03:03:11;101110.00;;;10.60
5571;BMP180;2808;51.240;6.794;2023-03-21T03:05:42;101114.00;;;10.60
5571;BMP180;2808;51.240;6.794;2023-03-21T03:08:26;101104.00;;;10.60
5571;BMP180;2808;51.240;6.794;2023-03-21T03:11:07;101105.00;;;10.60
5571;BMP180;2808;51.240;6.794;2023-03-21T03:13:49;101114.00;;;10.50
5571;BMP180;2808;51.240;6.794;2023-03-21T03:16:25;101105.00;;;10.50
5571;BMP180;2808;51.240;6.794;2023-03-21T03:18:57;101105.00;;;10.50
5571;BMP180;2808;51.240;6.794;2023-03-21T03:21:28;101108.00;;;10.50
5571;BMP180;2808;51.240;6.794;2023-03-21T03:24:02;101100.00;;;10.50
5571;BMP180;2808;51.240;6.794;2023-03-21T03:26:33;101087.00;;;10.40
5571;BMP180;2808;51.240;6.794;2023-03-21T03:29:05;101094.00;;;10.40
5571;BMP180;2808;51.240;6.794;2023-03-21T03:31:36;101083.00;;;10.40
5571;BMP180;2808;51.240;6.794;2023-03-21T03:34:11;101082.00;;;10.30
5571;BMP180;2808;51.240;6.794;2023-03-21T03:36:40;101081.00;;;10.30
5571;BMP180;2808;51.240;6.794;2023-03-21T03:39:12;101080.00;;;10.30
5571;BMP180;2808;51.240;6.794;2023-03-21T03:41:48;101075.00;;;10.30
5571;BMP180;2808;51.240;6.794;2023-03-21T03:44:17;101081.00;;;10.30
5571;BMP180;2808;51.240;6.794;2023-03-21T03:46:49;101086.00;;;10.20
5571;BMP180;2808;51.240;6.794;2023-03-21T03:49:21;101082.00;;;10.20
5571;BMP180;2808;51.240;6.794;2023-03-21T03:51:54;101084.00;;;10.20
5571;BMP180;2808;51.240;6.794;2023-03-21T03:54:28;101076.00;;;10.20
5571;BMP180;2808;51.240;6.794;2023-03-21T03:56:58;101071.00;;;10.20
5571;BMP180;2808;51.240;6.794;2023-03-21T03:59:26;101057.00;;;10.20
5571;BMP180;2808;51.240;6.794;2023-03-21T04:01:54;101068.00;;;10.20
5571;BMP180;2808;51.240;6.794;2023-03-21T04:04:21;101059.00;;;10.30
5571;BMP180;2808;51.240;6.794;2023-03-21T04:06:53;101057.00;;;10.30
5571;BMP180;2808;51.240;6.794;2023-03-21T04:09:21;101052.00;;;10.30
5571;BMP180;2808;51.240;6.794;2023-03-21T04:11:53;101050.00;;;10.30
5571;BMP180;2808;51.240;6.794;2023-03-21T04:14:24;101046.00;;;10.30
5571;BMP180;2808;51.240;6.794;2023-03-21T04:16:51;101060.00;;;10.30
5571;BMP180;2808;51.240;6.794;2023-03-21T04:19:19;101054.00;;;10.30
5571;BMP180;2808;51.240;6.794;2023-03-21T04:21:47;101055.00;;;10.40
5571;BMP180;2808;51.240;6.794;2023-03-21T04:24:15;101050.00;;;10.40
5571;BMP180;2808;51.240;6.794;2023-03-21T04:26:43;101054.00;;;10.40
5571;BMP180;2808;51.240;6.794;2023-03-21T04:29:11;101056.00;;;10.40
5571;BMP180;2808;51.240;6.794;2023-03-21T04:31:39;101059.00;;;10.40
5571;BMP180;2808;51.240;6.794;2023-03-21T04:34:07;101052.00;;;10.40
5571;BMP180;2808;51.240;6.794;2023-03-21T04:36:37;101058.00;;;10.40
5571;BMP180;2808;51.240;6.794;2023-03-21T04:39:08;101059.00;;;10.40
5571;BMP180;2808;51.240;6.794;2023-03-21T04:41:38;101057.00;;;10.40
5571;BMP180;2808;51.240;6.794;2023-03-21T04:44:05;101062.00;;;10.40
5571;BMP180;2808;51.240;6.794;2023-03-21T04:46:35;101059.00;;;10.40
5571;BMP180;2808;51.240;6.794;2023-03-21T04:49:03;101061.00;;;10.40
5571;BMP180;2808;51.240;6.794;2023-03-21T04:51:32;101052.00;;;10.40
5571;BMP180;2808;51.240;6.794;2023-03-21T04:54:00;101036.00;;;10.40
5571;BMP180;2808;51.240;6.794;2023-03-21T04:56:28;101046.00;;;10.40
5571;BMP180;2808;51.240;6.794;2023-03-21T04:58:58;101048.00;;;10.40
5571;BMP180;2808;51.240;6.794;2023-03-21T05:01:26;101034.00;;;10.40
5571;BMP180;2808;51.240;6.794;2023-03-21T05:03:57;101032.00;;;10.40
5571;BMP180;2808;51.240;6.794;2023-03-21T05:06:25;101027.00;;;10.40
5571;BMP180;2808;51.240;6.794;2023-03-21T05:08:53;101029.00;;;10.40
5571;BMP180;2808;51.240;6.794;2023-03-21T05:11:25;101030.00;;;10.30
5571;BMP180;2808;51.240;6.794;2023-03-21T05:13:53;101029.00;;;10.40
5571;BMP180;2808;51.240;6.794;2023-03-21T05:16:20;101034.00;;;10.40
5571;BMP180;2808;51.240;6.794;2023-03-21T05:18:52;101032.00;;;10.30
5571;BMP180;2808;51.240;6.794;2023-03-21T05:21:21;101031.00;;;10.40
5571;BMP180;2808;51.240;6.794;2023-03-21T05:23:51;101050.00;;;10.30
5571;BMP180;2808;51.240;6.794;2023-03-21T05:26:21;101043.00;;;10.30
5571;BMP180;2808;51.240;6.794;2023-03-21T05:28:49;101046.00;;;10.40
5571;BMP180;2808;51.240;6.794;2023-03-21T05:31:19;101040.00;;;10.30
5571;BMP180;2808;51.240;6.794;2023-03-21T05:33:49;101040.00;;;10.40
5571;BMP180;2808;51.240;6.794;2023-03-21T05:36:17;101034.00;;;10.40
5571;BMP180;2808;51.240;6.794;2023-03-21T05:38:49;101034.00;;;10.30
5571;BMP180;2808;51.240;6.794;2023-03-21T05:41:17;101030.00;;;10.30
5571;BMP180;2808;51.240;6.794;2023-03-21T05:43:46;101026.00;;;10.30
5571;BMP180;2808;51.240;6.794;2023-03-21T05:46:14;101021.00;;;10.30
5571;BMP180;2808;51.240;6.794;2023-03-21T05:48:42;101035.00;;;10.30
5571;BMP180;2808;51.240;6.794;2023-03-21T05:51:14;101030.00;;;10.30
5571;BMP180;2808;51.240;6.794;2023-03-21T05:53:41;101032.00;;;10.30
5571;BMP180;2808;51.240;6.794;2023-03-21T05:56:15;101030.00;;;10.30
5571;BMP180;2808;51.240;6.794;2023-03-21T05:58:43;101032.00;;;10.30
5571;BMP180;2808;51.240;6.794;2023-03-21T06:01:10;101041.00;;;10.20
5571;BMP180;2808;51.240;6.794;2023-03-21T06:03:38;101042.00;;;10.20
5571;BMP180;2808;51.240;6.794;2023-03-21T06:06:07;101043.00;;;10.20
5571;BMP180;2808;51.240;6.794;2023-03-21T06:08:34;101036.00;;;10.20
5571;BMP180;2808;51.240;6.794;2023-03-21T06:11:02;101041.00;;;10.20
5571;BMP180;2808;51.240;6.794;2023-03-21T06:13:36;101030.00;;;10.20
5571;BMP180;2808;51.240;6.794;2023-03-21T06:16:04;101030.00;;;10.20
5571;BMP180;2808;51.240;6.794;2023-03-21T06:18:32;101037.00;;;10.20
5571;BMP180;2808;51.240;6.794;2023-03-21T06:21:01;101033.00;;;10.20
5571;BMP180;2808;51.240;6.794;2023-03-21T06:23:31;101033.00;;;10.20
5571;BMP180;2808;51.240;6.794;2023-03-21T06:26:02;101035.00;;;10.20
5571;BMP180;2808;51.240;6.794;2023-03-21T06:28:33;101043.00;;;10.20
5571;BMP180;2808;51.240;6.794;2023-03-21T06:31:01;101039.00;;;10.20
5571;BMP180;2808;51.240;6.794;2023-03-21T06:33:29;101042.00;;;10.20
5571;BMP180;2808;51.240;6.794;2023-03-21T06:35:58;101031.00;;;10.30
5571;BMP180;2808;51.240;6.794;2023-03-21T06:38:28;101037.00;;;10.30
5571;BMP180;2808;51.240;6.794;2023-03-21T06:40:58;101043.00;;;10.30
5571;BMP180;2808;51.240;6.794;2023-03-21T06:43:32;101034.00;;;10.40
5571;BMP180;2808;51.240;6.794;2023-03-21T06:46:00;101043.00;;;10.50
5571;BMP180;2808;51.240;6.794;2023-03-21T06:49:19;101033.00;;;10.40
5571;BMP180;2808;51.240;6.794;2023-03-21T06:51:47;101042.00;;;10.40
5571;BMP180;2808;51.240;6.794;2023-03-21T06:54:17;101043.00;;;10.40
5571;BMP180;2808;51.240;6.794;2023-03-21T06:56:45;101048.00;;;10.40
5571;BMP180;2808;51.240;6.794;2023-03-21T06:59:16;101046.00;;;10.50
5571;BMP180;2808;51.240;6.794;2023-03-21T07:01:44;101048.00;;;10.50
5571;BMP180;2808;51.240;6.794;2023-03-21T07:07:06;101056.00;;;10.50
5571;BMP180;2808;51.240;6.794;2023-03-21T11:00:54;100927.00;;;12.00
5571;BMP180;2808;51.240;6.794;2023-03-21T11:04:17;100927.00;;;12.20
5571;BMP180;2808;51.240;6.794;2023-03-21T11:06:50;100919.00;;;12.30
5571;BMP180;2808;51.240;6.794;2023-03-21T11:09:24;100920.00;;;12.40
5571;BMP180;2808;51.240;6.794;2023-03-21T11:12:03;100919.00;;;12.40
5571;BMP180;2808;51.240;6.794;2023-03-21T11:15:13;100913.00;;;12.50
5571;BMP180;2808;51.240;6.794;2023-03-21T11:17:50;100903.00;;;12.50
5571;BMP180;2808;51.240;6.794;2023-03-21T11:20:22;100912.00;;;12.60
5571;BMP180;2808;51.240;6.794;2023-03-21T11:22:55;100921.00;;;12.60
5571;BMP180;2808;51.240;6.794;2023-03-21T11:25:32;100923.00;;;12.70
5571;BMP180;2808;51.240;6.794;2023-03-21T11:28:08;100919.00;;;12.60
5571;BMP180;2808;51.240;6.794;2023-03-21T11:30:36;100920.00;;;12.40
5571;BMP180;2808;51.240;6.794;2023-03-21T11:33:06;100918.00;;;12.40
5571;BMP180;2808;51.240;6.794;2023-03-21T11:35:42;100914.00;;;12.50
5571;BMP180;2808;51.240;6.794;2023-03-21T11:38:38;100910.00;;;12.60
5571;BMP180;2808;51.240;6.794;2023-03-21T11:41:26;100909.00;;;12.60
5571;BMP180;2808;51.240;6.794;2023-03-21T11:43:58;100914.00;;;12.60
5571;BMP180;2808;51.240;6.794;2023-03-21T11:46:29;100906.00;;;12.50
5571;BMP180;2808;51.240;6.794;2023-03-21T11:49:03;100895.00;;;12.50
5571;BMP180;2808;51.240;6.794;2023-03-21T11:51:38;100895.00;;;12.30
5571;BMP180;2808;51.240;6.794;2023-03-21T11:54:22;100907.00;;;12.30
5571;BMP180;2808;51.240;6.794;2023-03-21T12:20:53;100901.00;;;12.20
5571;BMP180;2808;51.240;6.794;2023-03-21T12:23:46;100898.00;;;12.10
5571;BMP180;2808;51.240;6.794;2023-03-21T12:26:23;100892.00;;;12.00
5571;BMP180;2808;51.240;6.794;2023-03-21T12:29:06;100898.00;;;11.90
5571;BMP180;2808;51.240;6.794;2023-03-21T12:31:52;100901.00;;;11.80
5571;BMP180;2808;51.240;6.794;2023-03-21T12:34:52;100879.00;;;11.80
5571;BMP180;2808;51.240;6.794;2023-03-21T12:37:45;100893.00;;;11.90
5571;BMP180;2808;51.240;6.794;2023-03-21T12:43:37;100881.00;;;12.20
5571;BMP180;2808;51.240;6.794;2023-03-21T12:46:21;100884.00;;;12.00
5571;BMP180;2808;51.240;6.794;2023-03-21T12:49:06;100858.00;;;12.10
5571;BMP180;2808;51.240;6.794;2023-03-21T12:51:42;100853.00;;;12.30
5571;BMP180;2808;51.240;6.794;2023-03-21T12:54:27;100853.00;;;12.20
5571;BMP180;2808;51.240;6.794;2023-03-21T12:56:59;100848.00;;;12.40
5571;BMP180;2808;51.240;6.794;2023-03-21T12:59:42;100864.00;;;12.50
5571;BMP180;2808;51.240;6.794;2023-03-21T13:02:17;100847.00;;;12.50
5571;BMP180;2808;51.240;6.794;2023-03-21T13:05:14;100843.00;;;12.50
5571;BMP180;2808;51.240;6.794;2023-03-21T13:08:59;100845.00;;;12.50
5571;BMP180;2808;51.240;6.794;2023-03-21T13:21:31;100807.00;;;12.10
5571;BMP180;2808;51.240;6.794;2023-03-21T13:24:26;100802.00;;;12.30
5571;BMP180;2808;51.240;6.794;2023-03-21T13:27:00;100803.00;;;12.30
5571;BMP180;2808;51.240;6.794;2023-03-21T13:29:40;100803.00;;;12.40
5571;BMP180;2808;51.240;6.794;2023-03-21T13:35:17;100800.00;;;12.50
5571;BMP180;2808;51.240;6.794;2023-03-21T15:43:31;100682.00;;;13.00
5571;BMP180;2808;51.240;6.794;2023-03-21T15:46:15;100693.00;;;13.00
5571;BMP180;2808;51.240;6.794;2023-03-21T15:48:45;100695.00;;;13.00
5571;BMP180;2808;51.240;6.794;2023-03-21T15:51:40;100702.00;;;13.00
5571;BMP180;2808;51.240;6.794;2023-03-21T15:54:26;100699.00;;;12.90
5571;BMP180;2808;51.240;6.794;2023-03-21T15:57:36;100704.00;;;12.90
5571;BMP180;2808;51.240;6.794;2023-03-21T16:00:21;100710.00;;;12.90
5571;BMP180;2808;51.240;6.794;2023-03-21T16:06:14;100705.00;;;12.70
5571;BMP180;2808;51.240;6.794;2023-03-21T16:09:07;100699.00;;;12.70
5571;BMP180;2808;51.240;6.794;2023-03-21T16:11:43;100698.00;;;12.80
5571;BMP180;2808;51.240;6.794;2023-03-21T16:14:30;100700.00;;;12.80
5571;BMP180;2808;51.240;6.794;2023-03-21T16:18:28;100692.00;;;12.90
5571;BMP180;2808;51.240;6.794;2023-03-21T16:20:47;100690.00;;;12.90
5571;BMP180;2808;51.240;6.794;2023-03-21T16:23:19;100701.00;;;12.90
5571;BMP180;2808;51.240;6.794;2023-03-21T16:26:08;100692.00;;;13.00
5571;BMP180;2808;51.240;6.794;2023-03-21T16:28:53;100691.00;;;13.00
5571;BMP180;2808;51.240;6.794;2023-03-21T16:31:23;100687.00;;;13.00
5571;BMP180;2808;51.240;6.794;2023-03-21T16:33:55;100690.00;;;13.00
5571;BMP180;2808;51.240;6.794;2023-03-21T16:36:23;100677.00;;;13.00
5571;BMP180;2808;51.240;6.794;2023-03-21T16:38:53;100671.00;;;12.90
5571;BMP180;2808;51.240;6.794;2023-03-21T16:41:22;100671.00;;;12.90
5571;BMP180;2808;51.240;6.794;2023-03-21T16:44:06;100669.00;;;12.80
5571;BMP180;2808;51.240;6.794;2023-03-21T16:46:34;100680.00;;;12.90
5571;BMP180;2808;51.240;6.794;2023-03-21T16:49:27;100673.00;;;12.80
5571;BMP180;2808;51.240;6.794;2023-03-21T16:51:55;100673.00;;;12.80
5571;BMP180;2808;51.240;6.794;2023-03-21T16:54:23;100687.00;;;12.80
5571;BMP180;2808;51.240;6.794;2023-03-21T16:56:54;100695.00;;;12.80
5571;BMP180;2808;51.240;6.794;2023-03-21T16:59:23;100694.00;;;12.80
5571;BMP180;2808;51.240;6.794;2023-03-21T17:01:54;100698.00;;;12.80
5571;BMP180;2808;51.240;6.794;2023-03-21T17:04:21;100706.00;;;12.80
5571;BMP180;2808;51.240;6.794;2023-03-21T17:07:01;100692.00;;;12.80
5571;BMP180;2808;51.240;6.794;2023-03-21T17:09:34;100696.00;;;12.70
5571;BMP180;2808;51.240;6.794;2023-03-21T17:12:09;100696.00;;;12.70
5571;BMP180;2808;51.240;6.794;2023-03-21T17:14:49;100699.00;;;12.70
5571;BMP180;2808;51.240;6.794;2023-03-21T17:17:18;100708.00;;;12.60
5571;BMP180;2808;51.240;6.794;2023-03-21T17:19:48;100720.00;;;12.70
5571;BMP180;2808;51.240;6.794;2023-03-21T17:22:19;100720.00;;;12.70
5571;BMP180;2808;51.240;6.794;2023-03-21T17:24:51;100722.00;;;12.70
5571;BMP180;2808;51.240;6.794;2023-03-21T17:27:19;100729.00;;;12.70
5571;BMP180;2808;51.240;6.794;2023-03-21T17:29:47;100729.00;;;12.70
5571;BMP180;2808;51.240;6.794;2023-03-21T17:32:27;100729.00;;;12.60
5571;BMP180;2808;51.240;6.794;2023-03-21T17:35:01;100715.00;;;12.60
5571;BMP180;2808;51.240;6.794;2023-03-21T17:37:34;100711.00;;;12.60
5571;BMP180;2808;51.240;6.794;2023-03-21T17:40:04;100707.00;;;12.60
5571;BMP180;2808;51.240;6.794;2023-03-21T17:43:00;100730.00;;;12.60
5571;BMP180;2808;51.240;6.794;2023-03-21T17:45:36;100732.00;;;12.60
5571;BMP180;2808;51.240;6.794;2023-03-21T17:48:09;100732.00;;;12.60
5571;BMP180;2808;51.240;6.794;2023-03-21T17:51:40;100725.00;;;12.60
5571;BMP180;2808;51.240;6.794;2023-03-21T17:54:54;100731.00;;;12.60
5571;BMP180;2808;51.240;6.794;2023-03-21T17:57:41;100734.00;;;12.60
5571;BMP180;2808;51.240;6.794;2023-03-21T18:00:39;100718.00;;;12.60
5571;BMP180;2808;51.240;6.794;2023-03-21T18:03:29;100715.00;;;12.60
5571;BMP180;2808;51.240;6.794;2023-03-21T18:06:11;100719.00;;;12.60
5571;BMP180;2808;51.240;6.794;2023-03-21T18:08:49;100719.00;;;12.50
5571;BMP180;2808;51.240;6.794;2023-03-21T18:11:34;100712.00;;;12.60
5571;BMP180;2808;51.240;6.794;2023-03-21T18:14:03;100715.00;;;12.60
5571;BMP180;2808;51.240;6.794;2023-03-21T18:16:36;100717.00;;;12.60
5571;BMP180;2808;51.240;6.794;2023-03-21T18:19:04;100714.00;;;12.60
5571;BMP180;2808;51.240;6.794;2023-03-21T18:21:40;100717.00;;;12.50
5571;BMP180;2808;51.240;6.794;2023-03-21T18:24:11;100716.00;;;12.50
5571;BMP180;2808;51.240;6.794;2023-03-21T18:26:43;100723.00;;;12.60
5571;BMP180;2808;51.240;6.794;2023-03-21T18:29:16;100717.00;;;12.60
5571;BMP180;2808;51.240;6.794;2023-03-21T18:33:21;100727.00;;;12.60
5571;BMP180;2808;51.240;6.794;2023-03-21T18:35:00;100721.00;;;12.50
5571;BMP180;2808;51.240;6.794;2023-03-21T18:40:48;100724.00;;;12.50
5571;BMP180;2808;51.240;6.794;2023-03-21T18:43:19;100726.00;;;12.60
5571;BMP180;2808;51.240;6.794;2023-03-21T18:45:47;100730.00;;;12.50
5571;BMP180;2808;51.240;6.794;2023-03-21T18:48:14;100726.00;;;12.50
5571;BMP180;2808;51.240;6.794;2023-03-21T18:50:42;100731.00;;;12.50
5571;BMP180;2808;51.240;6.794;2023-03-21T18:53:10;100729.00;;;12.50
5571;BMP180;2808;51.240;6.794;2023-03-21T18:55:40;100729.00;;;12.50
5571;BMP180;2808;51.240;6.794;2023-03-21T18:58:09;100727.00;;;12.50
5571;BMP180;2808;51.240;6.794;2023-03-21T19:00:39;100728.00;;;12.50
5571;BMP180;2808;51.240;6.794;2023-03-21T19:03:09;100731.00;;;12.50
5571;BMP180;2808;51.240;6.794;2023-03-21T19:05:41;100721.00;;;12.50
5571;BMP180;2808;51.240;6.794;2023-03-21T19:08:15;100727.00;;;12.50
5571;BMP180;2808;51.240;6.794;2023-03-21T19:10:42;100732.00;;;12.50
5571;BMP180;2808;51.240;6.794;2023-03-21T19:13:11;100726.00;;;12.50
5571;BMP180;2808;51.240;6.794;2023-03-21T19:15:51;100726.00;;;12.50
5571;BMP180;2808;51.240;6.794;2023-03-21T19:18:19;100726.00;;;12.50
5571;BMP180;2808;51.240;6.794;2023-03-21T19:20:58;100708.00;;;12.50
5571;BMP180;2808;51.240;6.794;2023-03-21T19:23:30;100700.00;;;12.50
5571;BMP180;2808;51.240;6.794;2023-03-21T19:25:58;100706.00;;;12.50
5571;BMP180;2808;51.240;6.794;2023-03-21T19:28:34;100707.00;;;12.50
5571;BMP180;2808;51.240;6.794;2023-03-21T19:31:27;100698.00;;;12.50
5571;BMP180;2808;51.240;6.794;2023-03-21T19:33:55;100703.00;;;12.50
5571;BMP180;2808;51.240;6.794;2023-03-21T19:36:31;100704.00;;;12.50
5571;BMP180;2808;51.240;6.794;2023-03-21T19:39:03;100694.00;;;12.50
5571;BMP180;2808;51.240;6.794;2023-03-21T19:41:34;100707.00;;;12.50
5571;BMP180;2808;51.240;6.794;2023-03-21T19:44:01;100692.00;;;12.50
5571;BMP180;2808;51.240;6.794;2023-03-21T19:46:33;100708.00;;;12.50
5571;BMP180;2808;51.240;6.794;2023-03-21T19:49:01;100711.00;;;12.50
5571;BMP180;2808;51.240;6.794;2023-03-21T19:51:31;100708.00;;;12.50
5571;BMP180;2808;51.240;6.794;2023-03-21T19:54:02;100697.00;;;12.50
5571;BMP180;2808;51.240;6.794;2023-03-21T19:56:32;100703.00;;;12.50
5571;BMP180;2808;51.240;6.794;2023-03-21T19:58:59;100705.00;;;12.50
5571;BMP180;2808;51.240;6.794;2023-03-21T20:01:29;100710.00;;;12.50
5571;BMP180;2808;51.240;6.794;2023-03-21T20:03:58;100707.00;;;12.50
5571;BMP180;2808;51.240;6.794;2023-03-21T20:06:25;100705.00;;;12.50
5571;BMP180;2808;51.240;6.794;2023-03-21T20:08:53;100696.00;;;12.50
5571;BMP180;2808;51.240;6.794;2023-03-21T20:11:24;100692.00;;;12.50
5571;BMP180;2808;51.240;6.794;2023-03-21T20:13:51;100696.00;;;12.50
5571;BMP180;2808;51.240;6.794;2023-03-21T20:16:19;100695.00;;;12.40
5571;BMP180;2808;51.240;6.794;2023-03-21T20:18:48;100694.00;;;12.40
5571;BMP180;2808;51.240;6.794;2023-03-21T20:21:20;100699.00;;;12.40
5571;BMP180;2808;51.240;6.794;2023-03-21T20:23:48;100686.00;;;12.40
5571;BMP180;2808;51.240;6.794;2023-03-21T20:26:22;100693.00;;;12.40
5571;BMP180;2808;51.240;6.794;2023-03-21T20:29:02;100684.00;;;12.30
5571;BMP180;2808;51.240;6.794;2023-03-21T20:31:31;100692.00;;;12.20
5571;BMP180;2808;51.240;6.794;2023-03-21T20:34:03;100689.00;;;12.10
5571;BMP180;2808;51.240;6.794;2023-03-21T20:36:39;100689.00;;;12.10
5571;BMP180;2808;51.240;6.794;2023-03-21T20:39:08;100684.00;;;12.00
5571;BMP180;2808;51.240;6.794;2023-03-21T20:41:45;100679.00;;;12.00
5571;BMP180;2808;51.240;6.794;2023-03-21T20:44:16;100676.00;;;12.00
5571;BMP180;2808;51.240;6.794;2023-03-21T20:46:44;100672.00;;;11.90
5571;BMP180;2808;51.240;6.794;2023-03-21T20:49:29;100670.00;;;11.90
5571;BMP180;2808;51.240;6.794;2023-03-21T20:51:58;100677.00;;;11.90
5571;BMP180;2808;51.240;6.794;2023-03-21T20:54:29;100670.00;;;11.90
5571;BMP180;2808;51.240;6.794;2023-03-21T20:56:57;100677.00;;;11.90
5571;BMP180;2808;51.240;6.794;2023-03-21T20:59:26;100683.00;;;11.90
5571;BMP180;2808;51.240;6.794;2023-03-21T21:01:54;100679.00;;;11.90
5571;BMP180;2808;51.240;6.794;2023-03-21T21:04:22;100671.00;;;11.90
5571;BMP180;2808;51.240;6.794;2023-03-21T21:06:51;100671.00;;;11.90
5571;BMP180;2808;51.240;6.794;2023-03-21T21:09:19;100669.00;;;11.80
5571;BMP180;2808;51.240;6.794;2023-03-21T21:11:49;100663.00;;;11.90
5571;BMP180;2808;51.240;6.794;2023-03-21T21:14:19;100667.00;;;11.90
5571;BMP180;2808;51.240;6.794;2023-03-21T21:16:46;100669.00;;;11.90
5571;BMP180;2808;51.240;6.794;2023-03-21T21:19:20;100673.00;;;11.90
5571;BMP180;2808;51.240;6.794;2023-03-21T21:21:54;100670.00;;;11.90
5571;BMP180;2808;51.240;6.794;2023-03-21T21:24:22;100671.00;;;11.80
5571;BMP180;2808;51.240;6.794;2023-03-21T21:26:50;100678.00;;;11.80
5571;BMP180;2808;51.240;6.794;2023-03-21T21:29:17;100676.00;;;11.70
5571;BMP180;2808;51.240;6.794;2023-03-21T21:31:50;100677.00;;;11.70
5571;BMP180;2808;51.240;6.794;2023-03-21T21:34:18;100679.00;;;11.60
5571;BMP180;2808;51.240;6.794;2023-03-21T21:36:53;100667.00;;;11.60
5571;BMP180;2808;51.240;6.794;2023-03-21T21:39:21;100675.00;;;11.50
5571;BMP180;2808;51.240;6.794;2023-03-21T21:41:52;100673.00;;;11.50
5571;BMP180;2808;51.240;6.794;2023-03-21T21:44:20;100668.00;;;11.60
5571;BMP180;2808;51.240;6.794;2023-03-21T21:46:50;100681.00;;;11.60
5571;BMP180;2808;51.240;6.794;2023-03-21T21:49:17;100677.00;;;11.60
5571;BMP180;2808;51.240;6.794;2023-03-21T21:51:48;100675.00;;;11.60